Matoaca, Virginia
Current Conditions -  °F | °C
As of 8:55 PM on Monday 20 Oct 2014 (Local Time) from KPTB Reporting Station
Clear Clear  
Wind Chill: 50°   Ceiling: Unl
Heat Index: 50°   Visibility: 10mi
Dew Point: 47°   Wind: 3mph
Humidity: 90%   Direction: 170°S
Pressure: 29.99"   Gusts: NA
Location:  37.2163°N, 77.4783°W
Report Text: KPTB 210055Z AUTO 17003KT 10SM CLR 10/08 A2999 RMK AO2 T00980083
Loading
Personal Weather Stations






























Interactive Weather Map
Tropical Storm Tracking
New forecast layout! Learn more

10-Day Weather Forecast

Advertisements
Track Severe Weather on mobile